Houston, TX

8:38 PM CST on February 09, 2016 (GMT -0600)
Sabine Street - Buffalo Bayou Park | | Change Station
CLOSE
Current Station
Personal Weather Station
Location: Houston, TX
Elevation: 43 ft
Nearby Weather Stations

Elev 43 ft 29.76 °N, 95.38 °W | Updated 31 seconds ago

Clear
Clear
62.1 °F
Feels Like 62.1 °F
N
1.8
Wind Variable Wind from ESE
Gusts 2.5 mph

Today
High -- | Low -- °F
--% Chance of Precip.
Yesterday
High -- | Low -- °F
Precip. -- in
Pressure 30.22 in
Visibility 10.0 miles
Clouds Clear
Dew Point 30 °F
Humidity 29%
Rainfall 0.00 in
Snow Depth Not available.
7:06 AM 6:05 PM
Waxing Crescent, 3% visible
METAR KMCJ 100235Z AUTO 00000KT 10SM CLR 16/M04 A3022 RMK AO1
Pressure 30.22 in
Visibility 10.0 miles
Clouds Clear
Dew Point 30 °F
Humidity 29%
Rainfall 0.00 in
Snow Depth Not available.
7:06 AM 6:05 PM
Waxing Crescent, 3% visible
METAR KMCJ 100235Z AUTO 00000KT 10SM CLR 16/M04 A3022 RMK AO1

10-Day Weather Forecast

Almanac

Astronomy

Feb. 09, 2016 Rise Set
Actual Time
Civil Twilight
Nautical Twilight
Astronomical Twilight
Moon
Length of Visible Light
Length of Day
Tomorrow will be .
, % of the Moon is Illuminated

Today's Extremes

State Highs State Lows

Community

WunderPhotos

Upload Photos

1,891,763 photos uploaded!

WunderBlog® & News

Nearby

Air Quality

  Air Quality AQ Index Pollutant
Not available.

Snow Depth

Station Depth Elevation

Earthquake Activity

City Distance Mag. Time & Date
Minimum magnitude displayed is 2.5.

Coastal Water Temperatures

Place Temperature

Stations

Nearby Weather Stations

Station Location Temp. Windchill Dew Point Humidity Wind Precip. Elev Updated Type
                   

Watches & Warnings

There are currently no watches in effect.